KSMX/SMX METAR and TAF weather

Enter ICAO airport designator
Station Type Date Time Source
KSMX METAR 2018/12/19 08:51 UTC NOAA

KSMX 190851Z AUTO 36013KT 10SM CLR 15/04 A3022 RMK AO2 SLP234 T01500044 $


Station Type Date Time Source
KSMX Decoded METAR 2018/12/19 08:51 UTC NOAA

SANTA MARIA PUBLIC AIRPORT, CA, United States (KSMX) 34-54N 120-28W 74M
Dec 19, 2018 - 03:51 AM EST / 2018.12.19 0851 UTC
Wind: from the N (360 degrees) at 15 MPH (13 KT):0
Visibility: 10 mile(s):0
Sky conditions: clear
Temperature: 59.0 F (15.0 C)
Dew Point: 39.9 F (4.4 C)
Relative Humidity: 49%
Pressure (altimeter): 30.22 in. Hg (1023 hPa)
ob: KSMX 190851Z AUTO 36013KT 10SM CLR 15/04 A3022 RMK AO2 SLP234 T01500044
cycle: 9

Station Type Date Time Source
KSMX TAF 2018/12/19 06:42 UTC NOAA

TAF KSMX 190538Z 1906/2006 34014KT P6SM SCT250
FM191000 34007KT P6SM SKC
FM191800 34012KT P6SM SKC
FM192300 33006KT P6SM SKC


Example: see airport list